sensor_id;sensor_type;location;lat;lon;timestamp;pressure;altitude;pressure_sealevel;temperature;humidity
71126;BME280;58785;55.566;38.058;2023-12-20T00:01:50;98549.91;;;4.44;86.59
71126;BME280;58785;55.566;38.058;2023-12-20T00:04:16;98559.78;;;4.42;86.53
71126;BME280;58785;55.566;38.058;2023-12-20T00:06:42;98565.28;;;4.49;86.42
71126;BME280;58785;55.566;38.058;2023-12-20T00:09:08;98562.38;;;4.52;85.97
71126;BME280;58785;55.566;38.058;2023-12-20T00:11:33;98565.00;;;4.52;86.02
71126;BME280;58785;55.566;38.058;2023-12-20T00:13:59;98559.56;;;4.53;86.05
71126;BME280;58785;55.566;38.058;2023-12-20T00:16:24;98561.66;;;4.50;86.01
71126;BME280;58785;55.566;38.058;2023-12-20T00:18:50;98549.75;;;4.46;85.73
71126;BME280;58785;55.566;38.058;2023-12-20T00:21:16;98545.44;;;4.45;85.86
71126;BME280;58785;55.566;38.058;2023-12-20T00:23:41;98555.19;;;4.44;85.60
71126;BME280;58785;55.566;38.058;2023-12-20T00:26:07;98560.06;;;4.39;86.22
71126;BME280;58785;55.566;38.058;2023-12-20T00:28:32;98564.81;;;4.36;86.21
71126;BME280;58785;55.566;38.058;2023-12-20T00:30:58;98567.03;;;4.30;85.76
71126;BME280;58785;55.566;38.058;2023-12-20T00:33:24;98586.63;;;4.28;86.29
71126;BME280;58785;55.566;38.058;2023-12-20T00:35:49;98580.66;;;4.26;86.36
71126;BME280;58785;55.566;38.058;2023-12-20T00:38:15;98568.31;;;4.26;86.04
71126;BME280;58785;55.566;38.058;2023-12-20T00:40:41;98580.38;;;4.29;86.21
71126;BME280;58785;55.566;38.058;2023-12-20T00:43:07;98570.91;;;4.36;86.18
71126;BME280;58785;55.566;38.058;2023-12-20T00:45:33;98569.63;;;4.40;86.25
71126;BME280;58785;55.566;38.058;2023-12-20T00:47:58;98573.50;;;4.46;85.87
71126;BME280;58785;55.566;38.058;2023-12-20T00:50:25;98589.88;;;4.49;85.77
71126;BME280;58785;55.566;38.058;2023-12-20T00:52:51;98580.00;;;4.51;85.74
71126;BME280;58785;55.566;38.058;2023-12-20T00:55:17;98582.50;;;4.53;85.40
71126;BME280;58785;55.566;38.058;2023-12-20T00:57:44;98576.25;;;4.54;85.28
71126;BME280;58785;55.566;38.058;2023-12-20T01:00:10;98576.63;;;4.59;85.75
71126;BME280;58785;55.566;38.058;2023-12-20T01:02:36;98579.25;;;4.59;85.75
71126;BME280;58785;55.566;38.058;2023-12-20T01:05:01;98580.22;;;4.58;85.65
71126;BME280;58785;55.566;38.058;2023-12-20T01:07:30;98572.31;;;4.58;85.89
71126;BME280;58785;55.566;38.058;2023-12-20T01:09:56;98573.97;;;4.59;85.41
71126;BME280;58785;55.566;38.058;2023-12-20T01:12:21;98558.69;;;4.63;85.42
71126;BME280;58785;55.566;38.058;2023-12-20T01:14:47;98557.88;;;4.62;85.51
71126;BME280;58785;55.566;38.058;2023-12-20T01:17:13;98555.91;;;4.64;85.42
71126;BME280;58785;55.566;38.058;2023-12-20T01:19:38;98554.09;;;4.65;85.01
71126;BME280;58785;55.566;38.058;2023-12-20T01:22:04;98559.22;;;4.66;85.05
71126;BME280;58785;55.566;38.058;2023-12-20T01:24:30;98552.94;;;4.67;84.95
71126;BME280;58785;55.566;38.058;2023-12-20T01:26:56;98543.53;;;4.65;85.09
71126;BME280;58785;55.566;38.058;2023-12-20T01:29:21;98547.69;;;4.67;85.10
71126;BME280;58785;55.566;38.058;2023-12-20T01:31:49;98539.91;;;4.66;84.96
71126;BME280;58785;55.566;38.058;2023-12-20T01:34:17;98532.81;;;4.66;85.15
71126;BME280;58785;55.566;38.058;2023-12-20T01:36:44;98526.41;;;4.69;85.02
71126;BME280;58785;55.566;38.058;2023-12-20T01:39:10;98529.19;;;4.67;85.12
71126;BME280;58785;55.566;38.058;2023-12-20T01:41:36;98544.06;;;4.68;85.44
71126;BME280;58785;55.566;38.058;2023-12-20T01:44:02;98533.81;;;4.65;85.28
71126;BME280;58785;55.566;38.058;2023-12-20T01:46:28;98523.00;;;4.58;85.11
71126;BME280;58785;55.566;38.058;2023-12-20T01:48:54;98527.59;;;4.56;85.42
71126;BME280;58785;55.566;38.058;2023-12-20T01:51:20;98524.72;;;4.50;85.30
71126;BME280;58785;55.566;38.058;2023-12-20T01:53:47;98530.69;;;4.52;85.57
71126;BME280;58785;55.566;38.058;2023-12-20T01:56:13;98508.25;;;4.38;85.39
71126;BME280;58785;55.566;38.058;2023-12-20T01:58:44;98535.16;;;4.51;85.41
71126;BME280;58785;55.566;38.058;2023-12-20T02:01:11;98522.91;;;4.50;85.46
71126;BME280;58785;55.566;38.058;2023-12-20T02:03:40;98517.63;;;4.50;85.09
71126;BME280;58785;55.566;38.058;2023-12-20T02:06:07;98516.78;;;4.50;85.09
71126;BME280;58785;55.566;38.058;2023-12-20T02:08:34;98515.97;;;4.49;85.54
71126;BME280;58785;55.566;38.058;2023-12-20T02:11:04;98522.78;;;4.52;85.49
71126;BME280;58785;55.566;38.058;2023-12-20T02:13:30;98515.81;;;4.51;85.05
71126;BME280;58785;55.566;38.058;2023-12-20T02:15:58;98523.19;;;4.47;85.31
71126;BME280;58785;55.566;38.058;2023-12-20T02:18:24;98522.06;;;4.50;85.17
71126;BME280;58785;55.566;38.058;2023-12-20T02:20:52;98504.34;;;4.42;84.97
71126;BME280;58785;55.566;38.058;2023-12-20T02:23:18;98525.41;;;4.52;85.14
71126;BME280;58785;55.566;38.058;2023-12-20T02:25:44;98527.22;;;4.51;84.90
71126;BME280;58785;55.566;38.058;2023-12-20T02:28:10;98522.63;;;4.53;84.69
71126;BME280;58785;55.566;38.058;2023-12-20T02:30:35;98517.34;;;4.53;84.82
71126;BME280;58785;55.566;38.058;2023-12-20T02:33:03;98514.03;;;4.51;84.23
71126;BME280;58785;55.566;38.058;2023-12-20T02:35:32;98522.22;;;4.48;84.67
71126;BME280;58785;55.566;38.058;2023-12-20T02:37:57;98518.09;;;4.46;84.66
71126;BME280;58785;55.566;38.058;2023-12-20T02:40:23;98499.75;;;4.44;84.94
71126;BME280;58785;55.566;38.058;2023-12-20T02:42:49;98491.59;;;4.38;84.73
71126;BME280;58785;55.566;38.058;2023-12-20T02:45:15;98477.47;;;4.29;85.29
71126;BME280;58785;55.566;38.058;2023-12-20T02:47:41;98489.16;;;4.26;85.07
71126;BME280;58785;55.566;38.058;2023-12-20T02:50:07;98490.44;;;4.22;85.59
71126;BME280;58785;55.566;38.058;2023-12-20T02:52:33;98496.16;;;4.18;85.37
71126;BME280;58785;55.566;38.058;2023-12-20T02:54:58;98495.47;;;4.16;85.54
71126;BME280;58785;55.566;38.058;2023-12-20T02:57:24;98498.94;;;4.16;85.46
71126;BME280;58785;55.566;38.058;2023-12-20T02:59:50;98507.00;;;4.15;85.32
71126;BME280;58785;55.566;38.058;2023-12-20T03:02:16;98507.69;;;4.17;85.51
71126;BME280;58785;55.566;38.058;2023-12-20T03:04:42;98508.50;;;4.17;85.83
71126;BME280;58785;55.566;38.058;2023-12-20T03:07:07;98521.28;;;4.22;85.64
71126;BME280;58785;55.566;38.058;2023-12-20T03:09:33;98516.94;;;4.21;85.58
71126;BME280;58785;55.566;38.058;2023-12-20T03:11:59;98519.75;;;4.19;85.37
71126;BME280;58785;55.566;38.058;2023-12-20T03:14:25;98518.09;;;4.18;85.34
71126;BME280;58785;55.566;38.058;2023-12-20T03:16:50;98525.84;;;4.20;85.63
71126;BME280;58785;55.566;38.058;2023-12-20T03:19:17;98527.50;;;4.21;85.62
71126;BME280;58785;55.566;38.058;2023-12-20T03:21:44;98525.00;;;4.19;85.67
71126;BME280;58785;55.566;38.058;2023-12-20T03:24:09;98520.16;;;4.24;85.60
71126;BME280;58785;55.566;38.058;2023-12-20T03:26:35;98520.97;;;4.25;85.21
71126;BME280;58785;55.566;38.058;2023-12-20T03:29:01;98532.88;;;4.29;85.38
71126;BME280;58785;55.566;38.058;2023-12-20T03:31:26;98514.41;;;4.29;85.44
71126;BME280;58785;55.566;38.058;2023-12-20T03:33:53;98520.78;;;4.36;85.86
71126;BME280;58785;55.566;38.058;2023-12-20T03:36:20;98518.81;;;4.38;85.27
71126;BME280;58785;55.566;38.058;2023-12-20T03:38:46;98521.19;;;4.41;85.30
71126;BME280;58785;55.566;38.058;2023-12-20T03:41:13;98507.44;;;4.38;85.26
71126;BME280;58785;55.566;38.058;2023-12-20T03:43:39;98520.31;;;4.41;85.35
71126;BME280;58785;55.566;38.058;2023-12-20T03:46:05;98504.94;;;4.36;85.53
71126;BME280;58785;55.566;38.058;2023-12-20T03:48:31;98521.53;;;4.46;85.42
71126;BME280;58785;55.566;38.058;2023-12-20T03:50:57;98513.78;;;4.45;85.35
71126;BME280;58785;55.566;38.058;2023-12-20T03:53:22;98516.41;;;4.45;85.27
71126;BME280;58785;55.566;38.058;2023-12-20T03:55:48;98522.53;;;4.45;85.40
71126;BME280;58785;55.566;38.058;2023-12-20T03:58:14;98519.31;;;4.51;85.04
71126;BME280;58785;55.566;38.058;2023-12-20T04:00:40;98519.00;;;4.54;84.87
71126;BME280;58785;55.566;38.058;2023-12-20T04:03:07;98518.03;;;4.55;85.04
71126;BME280;58785;55.566;38.058;2023-12-20T04:05:33;98507.91;;;4.51;84.71
71126;BME280;58785;55.566;38.058;2023-12-20T04:08:01;98512.50;;;4.49;84.90
71126;BME280;58785;55.566;38.058;2023-12-20T04:10:28;98518.75;;;4.48;85.24
71126;BME280;58785;55.566;38.058;2023-12-20T04:12:54;98520.25;;;4.50;85.12
71126;BME280;58785;55.566;38.058;2023-12-20T04:15:20;98528.06;;;4.52;85.40
71126;BME280;58785;55.566;38.058;2023-12-20T04:17:47;98524.59;;;4.51;84.79
71126;BME280;58785;55.566;38.058;2023-12-20T04:20:13;98526.25;;;4.52;84.88
71126;BME280;58785;55.566;38.058;2023-12-20T04:22:38;98524.72;;;4.50;84.96
71126;BME280;58785;55.566;38.058;2023-12-20T04:25:04;98523.50;;;4.44;85.09
71126;BME280;58785;55.566;38.058;2023-12-20T04:27:31;98531.81;;;4.49;85.11
71126;BME280;58785;55.566;38.058;2023-12-20T04:29:57;98526.53;;;4.49;84.82
71126;BME280;58785;55.566;38.058;2023-12-20T04:32:23;98523.88;;;4.49;85.17
71126;BME280;58785;55.566;38.058;2023-12-20T04:34:49;98524.72;;;4.50;84.83
71126;BME280;58785;55.566;38.058;2023-12-20T04:37:14;98524.44;;;4.53;84.97
71126;BME280;58785;55.566;38.058;2023-12-20T04:39:40;98528.56;;;4.55;84.98
71126;BME280;58785;55.566;38.058;2023-12-20T04:42:07;98524.97;;;4.56;84.73
71126;BME280;58785;55.566;38.058;2023-12-20T04:44:32;98534.00;;;4.54;84.78
71126;BME280;58785;55.566;38.058;2023-12-20T04:46:58;98534.69;;;4.56;84.34
71126;BME280;58785;55.566;38.058;2023-12-20T04:49:24;98540.13;;;4.54;84.27
71126;BME280;58785;55.566;38.058;2023-12-20T04:51:50;98527.34;;;4.50;84.70
71126;BME280;58785;55.566;38.058;2023-12-20T04:54:15;98528.72;;;4.54;84.62
71126;BME280;58785;55.566;38.058;2023-12-20T04:56:41;98529.00;;;4.51;85.00
71126;BME280;58785;55.566;38.058;2023-12-20T04:59:07;98528.31;;;4.49;84.67
71126;BME280;58785;55.566;38.058;2023-12-20T05:01:33;98525.84;;;4.47;84.50
71126;BME280;58785;55.566;38.058;2023-12-20T05:03:59;98532.94;;;4.47;84.71
71126;BME280;58785;55.566;38.058;2023-12-20T05:06:25;98535.72;;;4.45;84.56
71126;BME280;58785;55.566;38.058;2023-12-20T05:08:51;98536.03;;;4.42;84.54
71126;BME280;58785;55.566;38.058;2023-12-20T05:11:17;98539.34;;;4.44;85.31
71126;BME280;58785;55.566;38.058;2023-12-20T05:13:42;98544.16;;;4.49;85.00
71126;BME280;58785;55.566;38.058;2023-12-20T05:16:08;98535.25;;;4.50;84.26
71126;BME280;58785;55.566;38.058;2023-12-20T05:18:35;98540.28;;;4.53;84.49
71126;BME280;58785;55.566;38.058;2023-12-20T05:21:01;98540.69;;;4.48;84.54
71126;BME280;58785;55.566;38.058;2023-12-20T05:23:27;98547.09;;;4.46;84.09
71126;BME280;58785;55.566;38.058;2023-12-20T05:25:53;98535.88;;;4.44;84.27
71126;BME280;58785;55.566;38.058;2023-12-20T05:28:18;98547.41;;;4.43;84.62
71126;BME280;58785;55.566;38.058;2023-12-20T05:30:44;98540.31;;;4.43;84.66
71126;BME280;58785;55.566;38.058;2023-12-20T05:33:10;98548.25;;;4.43;84.64
71126;BME280;58785;55.566;38.058;2023-12-20T05:35:36;98548.91;;;4.45;84.68
71126;BME280;58785;55.566;38.058;2023-12-20T05:38:01;98547.94;;;4.46;84.59
71126;BME280;58785;55.566;38.058;2023-12-20T05:40:27;98554.56;;;4.50;84.29
71126;BME280;58785;55.566;38.058;2023-12-20T05:42:53;98560.84;;;4.49;84.34
71126;BME280;58785;55.566;38.058;2023-12-20T05:45:19;98564.31;;;4.50;84.24
71126;BME280;58785;55.566;38.058;2023-12-20T05:47:46;98566.09;;;4.49;84.26
71126;BME280;58785;55.566;38.058;2023-12-20T05:50:12;98569.47;;;4.51;84.32
71126;BME280;58785;55.566;38.058;2023-12-20T05:52:37;98574.44;;;4.54;84.11
71126;BME280;58785;55.566;38.058;2023-12-20T05:55:03;98569.47;;;4.51;83.97
71126;BME280;58785;55.566;38.058;2023-12-20T05:57:33;98570.41;;;4.50;84.08
71126;BME280;58785;55.566;38.058;2023-12-20T05:59:58;98568.22;;;4.46;84.24
71126;BME280;58785;55.566;38.058;2023-12-20T06:02:24;98566.88;;;4.42;84.00
71126;BME280;58785;55.566;38.058;2023-12-20T06:04:50;98560.88;;;4.40;84.11
71126;BME280;58785;55.566;38.058;2023-12-20T06:07:16;98558.25;;;4.40;84.30
71126;BME280;58785;55.566;38.058;2023-12-20T06:09:42;98552.13;;;4.39;84.17
71126;BME280;58785;55.566;38.058;2023-12-20T06:12:08;98559.22;;;4.39;84.03
71126;BME280;58785;55.566;38.058;2023-12-20T06:14:34;98545.34;;;4.37;84.12
71126;BME280;58785;55.566;38.058;2023-12-20T06:17:00;98557.03;;;4.34;84.34
71126;BME280;58785;55.566;38.058;2023-12-20T06:19:29;98563.44;;;4.31;84.72
71126;BME280;58785;55.566;38.058;2023-12-20T06:21:55;98560.81;;;4.31;84.08
71126;BME280;58785;55.566;38.058;2023-12-20T06:24:20;98556.22;;;4.33;84.27
71126;BME280;58785;55.566;38.058;2023-12-20T06:26:47;98571.44;;;4.40;83.94
71126;BME280;58785;55.566;38.058;2023-12-20T06:29:13;98583.22;;;4.45;83.98
71126;BME280;58785;55.566;38.058;2023-12-20T06:31:39;98578.63;;;4.47;84.06
71126;BME280;58785;55.566;38.058;2023-12-20T06:34:05;98580.13;;;4.50;83.88
71126;BME280;58785;55.566;38.058;2023-12-20T06:36:30;98565.69;;;4.54;83.69
71126;BME280;58785;55.566;38.058;2023-12-20T06:38:56;98568.84;;;4.57;84.06
71126;BME280;58785;55.566;38.058;2023-12-20T06:41:23;98566.88;;;4.59;83.39
71126;BME280;58785;55.566;38.058;2023-12-20T06:43:50;98562.84;;;4.65;83.35
71126;BME280;58785;55.566;38.058;2023-12-20T06:46:15;98567.81;;;4.68;83.58
71126;BME280;58785;55.566;38.058;2023-12-20T06:48:42;98564.44;;;4.76;83.19
71126;BME280;58785;55.566;38.058;2023-12-20T06:51:12;98560.66;;;4.78;82.63
71126;BME280;58785;55.566;38.058;2023-12-20T06:53:39;98563.31;;;4.78;83.01
71126;BME280;58785;55.566;38.058;2023-12-20T06:56:04;98564.97;;;4.79;82.48
71126;BME280;58785;55.566;38.058;2023-12-20T06:58:30;98557.19;;;4.78;82.63
71126;BME280;58785;55.566;38.058;2023-12-20T07:00:56;98570.94;;;4.81;83.04
71126;BME280;58785;55.566;38.058;2023-12-20T07:03:22;98571.72;;;4.92;82.90
71126;BME280;58785;55.566;38.058;2023-12-20T07:05:47;98574.72;;;4.97;82.65
71126;BME280;58785;55.566;38.058;2023-12-20T07:08:14;98569.00;;;5.01;82.11
71126;BME280;58785;55.566;38.058;2023-12-20T07:10:41;98575.63;;;5.05;81.98
71126;BME280;58785;55.566;38.058;2023-12-20T07:13:07;98578.66;;;5.10;82.05
71126;BME280;58785;55.566;38.058;2023-12-20T07:15:33;98580.19;;;5.13;81.66
71126;BME280;58785;55.566;38.058;2023-12-20T07:17:59;98581.38;;;5.18;81.68
71126;BME280;58785;55.566;38.058;2023-12-20T07:20:28;98574.28;;;5.19;81.73
71126;BME280;58785;55.566;38.058;2023-12-20T07:22:57;98579.13;;;5.24;81.13
71126;BME280;58785;55.566;38.058;2023-12-20T07:25:23;98574.66;;;5.24;81.64
71126;BME280;58785;55.566;38.058;2023-12-20T07:27:48;98578.13;;;5.25;80.99
71126;BME280;58785;55.566;38.058;2023-12-20T07:30:14;98585.75;;;5.28;81.22
71126;BME280;58785;55.566;38.058;2023-12-20T07:32:40;98590.72;;;5.31;81.08
71126;BME280;58785;55.566;38.058;2023-12-20T07:35:06;98585.44;;;5.31;80.60
71126;BME280;58785;55.566;38.058;2023-12-20T07:37:32;98586.41;;;5.30;80.65
71126;BME280;58785;55.566;38.058;2023-12-20T07:39:57;98584.00;;;5.36;81.20
71126;BME280;58785;55.566;38.058;2023-12-20T07:42:23;98585.50;;;5.39;80.81
71126;BME280;58785;55.566;38.058;2023-12-20T07:44:49;98598.44;;;5.42;81.24
71126;BME280;58785;55.566;38.058;2023-12-20T07:47:14;98598.13;;;5.45;80.79
71126;BME280;58785;55.566;38.058;2023-12-20T07:49:43;98598.97;;;5.45;80.43
71126;BME280;58785;55.566;38.058;2023-12-20T07:52:09;98604.09;;;5.47;80.91
71126;BME280;58785;55.566;38.058;2023-12-20T07:54:34;98605.91;;;5.46;80.55
71126;BME280;58785;55.566;38.058;2023-12-20T07:57:00;98594.00;;;5.42;80.89
71126;BME280;58785;55.566;38.058;2023-12-20T07:59:26;98599.78;;;5.46;80.66
71126;BME280;58785;55.566;38.058;2023-12-20T08:01:51;98606.56;;;5.48;80.41
71126;BME280;58785;55.566;38.058;2023-12-20T08:04:18;98613.00;;;5.46;80.52
71126;BME280;58785;55.566;38.058;2023-12-20T08:06:43;98605.56;;;5.41;80.57
71126;BME280;58785;55.566;38.058;2023-12-20T08:09:10;98613.69;;;5.48;80.34
71126;BME280;58785;55.566;38.058;2023-12-20T08:11:36;98610.06;;;5.49;80.76
71126;BME280;58785;55.566;38.058;2023-12-20T08:14:01;98608.88;;;5.43;80.63
71126;BME280;58785;55.566;38.058;2023-12-20T08:16:27;98610.44;;;5.36;80.67
71126;BME280;58785;55.566;38.058;2023-12-20T08:18:53;98613.75;;;5.38;80.61
71126;BME280;58785;55.566;38.058;2023-12-20T08:21:19;98611.78;;;5.40;80.40
71126;BME280;58785;55.566;38.058;2023-12-20T08:23:47;98607.22;;;5.42;80.63
71126;BME280;58785;55.566;38.058;2023-12-20T08:26:13;98611.34;;;5.45;80.31
71126;BME280;58785;55.566;38.058;2023-12-20T08:28:39;98606.22;;;5.43;80.19
71126;BME280;58785;55.566;38.058;2023-12-20T08:31:04;98605.22;;;5.44;79.82
71126;BME280;58785;55.566;38.058;2023-12-20T08:33:30;98608.09;;;5.51;80.61
71126;BME280;58785;55.566;38.058;2023-12-20T08:35:56;98602.78;;;5.51;79.89
71126;BME280;58785;55.566;38.058;2023-12-20T08:38:23;98608.41;;;5.48;79.92
71126;BME280;58785;55.566;38.058;2023-12-20T08:40:49;98605.22;;;5.44;80.14
71126;BME280;58785;55.566;38.058;2023-12-20T08:43:14;98597.47;;;5.43;80.47
71126;BME280;58785;55.566;38.058;2023-12-20T08:45:40;98594.50;;;5.46;80.01
71126;BME280;58785;55.566;38.058;2023-12-20T08:48:06;98603.94;;;5.48;80.55
71126;BME280;58785;55.566;38.058;2023-12-20T08:50:32;98604.59;;;5.51;80.43
71126;BME280;58785;55.566;38.058;2023-12-20T08:52:58;98598.97;;;5.45;79.78
71126;BME280;58785;55.566;38.058;2023-12-20T08:55:24;98603.03;;;5.40;80.49
71126;BME280;58785;55.566;38.058;2023-12-20T08:57:49;98607.34;;;5.41;80.29
71126;BME280;58785;55.566;38.058;2023-12-20T09:00:16;98607.81;;;5.36;80.42
71126;BME280;58785;55.566;38.058;2023-12-20T09:02:42;98610.44;;;5.36;80.64
71126;BME280;58785;55.566;38.058;2023-12-20T09:05:08;98614.59;;;5.39;80.60
71126;BME280;58785;55.566;38.058;2023-12-20T09:07:34;98609.16;;;5.40;80.79
71126;BME280;58785;55.566;38.058;2023-12-20T09:10:00;98603.84;;;5.40;80.30
71126;BME280;58785;55.566;38.058;2023-12-20T09:12:25;98603.03;;;5.40;80.78
71126;BME280;58785;55.566;38.058;2023-12-20T09:14:51;98604.69;;;5.41;80.56
71126;BME280;58785;55.566;38.058;2023-12-20T09:17:18;98600.09;;;5.43;80.04
71126;BME280;58785;55.566;38.058;2023-12-20T09:19:44;98601.44;;;5.47;80.69
71126;BME280;58785;55.566;38.058;2023-12-20T09:22:11;98602.50;;;5.54;80.13
71126;BME280;58785;55.566;38.058;2023-12-20T09:24:37;98605.50;;;5.59;80.28
71126;BME280;58785;55.566;38.058;2023-12-20T09:27:04;98607.03;;;5.62;79.83
71126;BME280;58785;55.566;38.058;2023-12-20T09:29:31;98603.56;;;5.61;80.05
71126;BME280;58785;55.566;38.058;2023-12-20T09:31:57;98605.91;;;5.64;79.92
71126;BME280;58785;55.566;38.058;2023-12-20T09:34:23;98605.22;;;5.62;80.10
71126;BME280;58785;55.566;38.058;2023-12-20T09:36:49;98609.13;;;5.58;80.55
71126;BME280;58785;55.566;38.058;2023-12-20T09:39:17;98603.34;;;5.55;80.44
71126;BME280;58785;55.566;38.058;2023-12-20T09:42:00;98614.59;;;5.57;80.40
71126;BME280;58785;55.566;38.058;2023-12-20T09:44:26;98609.47;;;5.55;80.00
71126;BME280;58785;55.566;38.058;2023-12-20T09:46:52;98602.13;;;5.49;80.75
71126;BME280;58785;55.566;38.058;2023-12-20T09:49:20;98599.94;;;5.44;80.93
71126;BME280;58785;55.566;38.058;2023-12-20T09:51:47;98601.75;;;5.44;80.94
71126;BME280;58785;55.566;38.058;2023-12-20T09:54:17;98598.28;;;5.43;80.71
71126;BME280;58785;55.566;38.058;2023-12-20T09:56:43;98590.03;;;5.46;80.80
71126;BME280;58785;55.566;38.058;2023-12-20T09:59:09;98585.28;;;5.50;80.38
71126;BME280;58785;55.566;38.058;2023-12-20T10:01:36;98585.28;;;5.50;80.47
71126;BME280;58785;55.566;38.058;2023-12-20T10:04:06;98588.47;;;5.54;80.12
71126;BME280;58785;55.566;38.058;2023-12-20T10:06:36;98589.28;;;5.54;80.62
71126;BME280;58785;55.566;38.058;2023-12-20T10:09:02;98593.94;;;5.60;80.08
71126;BME280;58785;55.566;38.058;2023-12-20T10:11:29;98589.03;;;5.65;80.34
71126;BME280;58785;55.566;38.058;2023-12-20T10:14:00;98583.75;;;5.65;79.85
71126;BME280;58785;55.566;38.058;2023-12-20T10:16:29;98593.19;;;5.68;80.41
71126;BME280;58785;55.566;38.058;2023-12-20T10:18:55;98588.06;;;5.66;79.78
71126;BME280;58785;55.566;38.058;2023-12-20T10:21:25;98593.34;;;5.66;80.01
71126;BME280;58785;55.566;38.058;2023-12-20T10:23:57;98589.19;;;5.64;80.37
71126;BME280;58785;55.566;38.058;2023-12-20T10:26:27;98586.19;;;5.59;79.97
71126;BME280;58785;55.566;38.058;2023-12-20T10:28:54;98595.47;;;5.63;79.84
71126;BME280;58785;55.566;38.058;2023-12-20T10:31:33;98609.97;;;5.59;79.80
71126;BME280;58785;55.566;38.058;2023-12-20T10:34:01;98606.81;;;5.55;79.91
71126;BME280;58785;55.566;38.058;2023-12-20T10:36:30;98606.50;;;5.58;79.99
71126;BME280;58785;55.566;38.058;2023-12-20T10:38:57;98607.47;;;5.57;80.24
71126;BME280;58785;55.566;38.058;2023-12-20T10:41:28;98605.66;;;5.58;79.82
71126;BME280;58785;55.566;38.058;2023-12-20T10:43:57;98610.13;;;5.57;80.23
71126;BME280;58785;55.566;38.058;2023-12-20T10:46:26;98605.44;;;5.51;80.17
71126;BME280;58785;55.566;38.058;2023-12-20T10:48:53;98610.72;;;5.51;79.79
71126;BME280;58785;55.566;38.058;2023-12-20T10:51:21;98605.59;;;5.49;79.69
71126;BME280;58785;55.566;38.058;2023-12-20T10:53:47;98595.66;;;5.43;80.38
71126;BME280;58785;55.566;38.058;2023-12-20T10:56:19;98597.06;;;5.38;80.37
71126;BME280;58785;55.566;38.058;2023-12-20T10:58:46;98603.19;;;5.38;80.55
71126;BME280;58785;55.566;38.058;2023-12-20T11:01:14;98601.69;;;5.36;80.11
71126;BME280;58785;55.566;38.058;2023-12-20T11:03:48;98598.66;;;5.31;80.43
71126;BME280;58785;55.566;38.058;2023-12-20T11:08:50;98613.56;;;5.32;80.50
71126;BME280;58785;55.566;38.058;2023-12-20T11:11:35;98625.78;;;5.33;80.69
71126;BME280;58785;55.566;38.058;2023-12-20T11:14:32;98619.19;;;5.37;80.65
71126;BME280;58785;55.566;38.058;2023-12-20T11:17:07;98611.94;;;5.39;80.17
71126;BME280;58785;55.566;38.058;2023-12-20T11:19:36;98619.34;;;5.35;80.51
71126;BME280;58785;55.566;38.058;2023-12-20T11:22:03;98607.13;;;5.34;80.79
71126;BME280;58785;55.566;38.058;2023-12-20T11:24:31;98615.22;;;5.33;80.57
71126;BME280;58785;55.566;38.058;2023-12-20T11:26:59;98616.03;;;5.33;80.72
71126;BME280;58785;55.566;38.058;2023-12-20T11:29:35;98616.19;;;5.32;80.69
71126;BME280;58785;55.566;38.058;2023-12-20T11:32:02;98612.72;;;5.31;80.31
71126;BME280;58785;55.566;38.058;2023-12-20T11:34:31;98613.84;;;5.29;80.67
71126;BME280;58785;55.566;38.058;2023-12-20T11:36:59;98620.41;;;5.25;80.62
71126;BME280;58785;55.566;38.058;2023-12-20T11:39:26;98633.31;;;5.28;80.63
71126;BME280;58785;55.566;38.058;2023-12-20T11:41:54;98631.97;;;5.24;80.78
71126;BME280;58785;55.566;38.058;2023-12-20T11:44:21;98643.69;;;5.21;80.91
71126;BME280;58785;55.566;38.058;2023-12-20T11:46:47;98636.84;;;5.18;80.71
71126;BME280;58785;55.566;38.058;2023-12-20T11:49:13;98636.84;;;5.18;80.94
71126;BME280;58785;55.566;38.058;2023-12-20T11:51:42;98636.69;;;5.20;80.91
71126;BME280;58785;55.566;38.058;2023-12-20T11:54:07;98631.28;;;5.22;81.00
71126;BME280;58785;55.566;38.058;2023-12-20T11:56:35;98633.22;;;5.19;81.14
71126;BME280;58785;55.566;38.058;2023-12-20T11:59:01;98628.78;;;5.20;81.06
71126;BME280;58785;55.566;38.058;2023-12-20T12:01:27;98630.59;;;5.19;80.96
71126;BME280;58785;55.566;38.058;2023-12-20T12:04:03;98631.41;;;5.20;81.57
71126;BME280;58785;55.566;38.058;2023-12-20T12:06:29;98624.78;;;5.16;80.84
71126;BME280;58785;55.566;38.058;2023-12-20T12:08:54;98624.09;;;5.14;81.05
71126;BME280;58785;55.566;38.058;2023-12-20T12:11:21;98627.28;;;5.17;81.61
71126;BME280;58785;55.566;38.058;2023-12-20T12:13:48;98611.88;;;5.13;81.17
71126;BME280;58785;55.566;38.058;2023-12-20T12:16:18;98619.09;;;5.11;81.00
71126;BME280;58785;55.566;38.058;2023-12-20T12:18:44;98611.94;;;5.03;81.56
71126;BME280;58785;55.566;38.058;2023-12-20T12:21:21;98616.69;;;5.00;81.54
71126;BME280;58785;55.566;38.058;2023-12-20T12:23:47;98605.75;;;4.95;81.78
71126;BME280;58785;55.566;38.058;2023-12-20T12:26:12;98625.75;;;4.97;81.63
71126;BME280;58785;55.566;38.058;2023-12-20T12:28:41;98634.13;;;4.93;81.80
71126;BME280;58785;55.566;38.058;2023-12-20T12:31:09;98645.78;;;4.90;81.69
71126;BME280;58785;55.566;38.058;2023-12-20T12:33:39;98643.28;;;4.88;81.76
71126;BME280;58785;55.566;38.058;2023-12-20T12:36:07;98640.28;;;4.83;82.05
71126;BME280;58785;55.566;38.058;2023-12-20T12:38:33;98647.38;;;4.83;81.92
71126;BME280;58785;55.566;38.058;2023-12-20T12:41:00;98651.00;;;4.82;81.76
71126;BME280;58785;55.566;38.058;2023-12-20T12:43:26;98648.25;;;4.74;82.10
71126;BME280;58785;55.566;38.058;2023-12-20T12:45:52;98661.31;;;4.75;81.76
71126;BME280;58785;55.566;38.058;2023-12-20T12:48:18;98656.19;;;4.74;82.18
71126;BME280;58785;55.566;38.058;2023-12-20T12:50:45;98653.69;;;4.72;82.62
71126;BME280;58785;55.566;38.058;2023-12-20T12:53:11;98654.66;;;4.71;82.23
71126;BME280;58785;55.566;38.058;2023-12-20T12:55:37;98668.00;;;4.70;81.90
71126;BME280;58785;55.566;38.058;2023-12-20T12:58:02;98664.50;;;4.69;82.02
71126;BME280;58785;55.566;38.058;2023-12-20T13:00:28;98665.66;;;4.67;82.52